Terminal Aerodrome Forecast
Issued by NWS

Home | Current Version | Previous Version | Text Only | Print | Product List | Glossary On
Versions: 1 2 3 4 5 6 7 8 9 10 11 12 13 14 15 16 17 18 19 20 21 22 23 24
000
FTUS44 KLIX 251728
TAFHUM
TAF
KHUM 251728Z 2518/2618 06005KT P6SM SCT025
      TEMPO 2518/2522 VRB15G25KT 1SM TSRA BR BKN025CB
     FM260000 09005KT P6SM BKN100
     FM260600 06005KT P6SM SCT250
     FM260900 VRB03KT P6SM SCT050
     FM261000 02004KT P6SM SCT250
     FM261400 03009KT P6SM SCT030=

USA.gov is the U.S. government's official web portal to all federal, state and local government web resources and services.